sensor_id;sensor_type;location;lat;lon;timestamp;pressure;altitude;pressure_sealevel;temperature;humidity
13011;BME280;6786;57.632;11.962;2022-12-10T00:01:39;100425.59;;;19.77;34.10
13011;BME280;6786;57.632;11.962;2022-12-10T00:04:08;100433.63;;;19.77;33.91
13011;BME280;6786;57.632;11.962;2022-12-10T00:06:38;100428.94;;;19.79;33.97
13011;BME280;6786;57.632;11.962;2022-12-10T00:09:11;100433.47;;;19.79;33.90
13011;BME280;6786;57.632;11.962;2022-12-10T00:11:40;100433.47;;;19.79;33.89
13011;BME280;6786;57.632;11.962;2022-12-10T00:14:08;100430.94;;;19.77;33.85
13011;BME280;6786;57.632;11.962;2022-12-10T00:16:37;100439.66;;;19.79;33.98
13011;BME280;6786;57.632;11.962;2022-12-10T00:19:05;100439.66;;;19.79;33.90
13011;BME280;6786;57.632;11.962;2022-12-10T00:21:34;100436.97;;;19.79;33.91
13011;BME280;6786;57.632;11.962;2022-12-10T00:24:03;100438.84;;;19.79;33.84
13011;BME280;6786;57.632;11.962;2022-12-10T00:26:35;100443.34;;;19.78;33.85
13011;BME280;6786;57.632;11.962;2022-12-10T00:29:05;100443.34;;;19.78;34.06
13011;BME280;6786;57.632;11.962;2022-12-10T00:31:35;100417.41;;;19.69;33.82
13011;BME280;6786;57.632;11.962;2022-12-10T00:34:07;100436.59;;;19.74;33.84
13011;BME280;6786;57.632;11.962;2022-12-10T00:36:37;100443.34;;;19.78;33.77
13011;BME280;6786;57.632;11.962;2022-12-10T00:39:06;100443.34;;;19.78;33.93
13011;BME280;6786;57.632;11.962;2022-12-10T00:41:35;100442.34;;;19.79;33.85
13011;BME280;6786;57.632;11.962;2022-12-10T00:44:04;100450.38;;;19.79;33.88
13011;BME280;6786;57.632;11.962;2022-12-10T00:46:32;100449.41;;;19.80;33.81
13011;BME280;6786;57.632;11.962;2022-12-10T00:49:00;100452.09;;;19.80;33.87
13011;BME280;6786;57.632;11.962;2022-12-10T00:51:29;100453.06;;;19.79;33.81
13011;BME280;6786;57.632;11.962;2022-12-10T00:53:58;100359.94;;;19.25;33.86
13011;BME280;6786;57.632;11.962;2022-12-10T00:56:29;100455.75;;;19.79;33.83
13011;BME280;6786;57.632;11.962;2022-12-10T00:58:59;100461.13;;;19.79;33.83
13011;BME280;6786;57.632;11.962;2022-12-10T01:01:29;100457.47;;;19.80;33.71
13011;BME280;6786;57.632;11.962;2022-12-10T01:04:00;100457.47;;;19.80;33.85
13011;BME280;6786;57.632;11.962;2022-12-10T01:06:30;100461.13;;;19.79;33.72
13011;BME280;6786;57.632;11.962;2022-12-10T01:09:00;100463.13;;;19.77;33.76
13011;BME280;6786;57.632;11.962;2022-12-10T01:11:30;100463.13;;;19.77;33.78
13011;BME280;6786;57.632;11.962;2022-12-10T01:14:00;100456.91;;;19.77;33.76
13011;BME280;6786;57.632;11.962;2022-12-10T01:16:29;100457.75;;;19.77;33.73
13011;BME280;6786;57.632;11.962;2022-12-10T01:18:57;100454.06;;;19.78;33.73
13011;BME280;6786;57.632;11.962;2022-12-10T01:21:27;100452.41;;;19.77;33.80
13011;BME280;6786;57.632;11.962;2022-12-10T01:23:56;100448.72;;;19.78;33.67
13011;BME280;6786;57.632;11.962;2022-12-10T01:26:26;100459.44;;;19.78;33.84
13011;BME280;6786;57.632;11.962;2022-12-10T01:28:55;100459.44;;;19.78;33.80
13011;BME280;6786;57.632;11.962;2022-12-10T01:31:27;100461.13;;;19.79;33.80
13011;BME280;6786;57.632;11.962;2022-12-10T01:33:55;100464.81;;;19.78;33.76
13011;BME280;6786;57.632;11.962;2022-12-10T01:36:26;100464.81;;;19.78;33.65
13011;BME280;6786;57.632;11.962;2022-12-10T01:38:55;100459.44;;;19.78;33.65
13011;BME280;6786;57.632;11.962;2022-12-10T01:41:25;100463.81;;;19.79;33.71
13011;BME280;6786;57.632;11.962;2022-12-10T01:43:57;100465.50;;;19.80;33.61
13011;BME280;6786;57.632;11.962;2022-12-10T01:46:28;100452.41;;;19.77;33.75
13011;BME280;6786;57.632;11.962;2022-12-10T01:48:57;100466.47;;;19.79;33.68
13011;BME280;6786;57.632;11.962;2022-12-10T01:51:30;100462.84;;;19.80;33.56
13011;BME280;6786;57.632;11.962;2022-12-10T01:53:58;100466.47;;;19.79;33.57
13011;BME280;6786;57.632;11.962;2022-12-10T01:56:27;100463.81;;;19.79;33.59
13011;BME280;6786;57.632;11.962;2022-12-10T01:58:56;100464.81;;;19.78;33.57
13011;BME280;6786;57.632;11.962;2022-12-10T02:01:32;100462.97;;;19.79;33.67
13011;BME280;6786;57.632;11.962;2022-12-10T02:04:14;100453.50;;;19.75;33.51
13011;BME280;6786;57.632;11.962;2022-12-10T02:06:54;100464.81;;;19.78;33.59
13011;BME280;6786;57.632;11.962;2022-12-10T02:09:28;100468.47;;;19.77;33.62
13011;BME280;6786;57.632;11.962;2022-12-10T02:12:08;100463.13;;;19.77;33.57
13011;BME280;6786;57.632;11.962;2022-12-10T02:14:43;100464.09;;;19.76;33.61
13011;BME280;6786;57.632;11.962;2022-12-10T02:17:19;100458.06;;;19.74;33.71
13011;BME280;6786;57.632;11.962;2022-12-10T02:20:01;100468.47;;;19.77;33.48
13011;BME280;6786;57.632;11.962;2022-12-10T02:22:32;100468.47;;;19.77;33.50
13011;BME280;6786;57.632;11.962;2022-12-10T02:25:02;100468.47;;;19.77;33.55
13011;BME280;6786;57.632;11.962;2022-12-10T02:27:37;100474.66;;;19.78;33.55
13011;BME280;6786;57.632;11.962;2022-12-10T02:30:10;100466.78;;;19.76;33.59
13011;BME280;6786;57.632;11.962;2022-12-10T02:32:40;100479.22;;;19.77;33.59
13011;BME280;6786;57.632;11.962;2022-12-10T02:35:11;100474.66;;;19.78;33.56
13011;BME280;6786;57.632;11.962;2022-12-10T02:37:45;100474.13;;;19.74;33.47
13011;BME280;6786;57.632;11.962;2022-12-10T02:40:18;100482.84;;;19.76;33.67
13011;BME280;6786;57.632;11.962;2022-12-10T02:42:49;100485.53;;;19.76;33.53
13011;BME280;6786;57.632;11.962;2022-12-10T02:45:22;100480.31;;;19.75;33.61
13011;BME280;6786;57.632;11.962;2022-12-10T02:47:53;100490.91;;;19.76;33.60
13011;BME280;6786;57.632;11.962;2022-12-10T02:50:24;100487.25;;;19.77;33.50
13011;BME280;6786;57.632;11.962;2022-12-10T02:52:53;100484.56;;;19.77;33.52
13011;BME280;6786;57.632;11.962;2022-12-10T02:55:21;100489.94;;;19.77;33.54
13011;BME280;6786;57.632;11.962;2022-12-10T02:58:02;100490.75;;;19.78;33.49
13011;BME280;6786;57.632;11.962;2022-12-10T03:00:40;100496.97;;;19.78;33.49
13011;BME280;6786;57.632;11.962;2022-12-10T03:03:31;100493.59;;;19.76;33.44
13011;BME280;6786;57.632;11.962;2022-12-10T03:06:09;100495.31;;;19.77;33.42
13011;BME280;6786;57.632;11.962;2022-12-10T03:08:44;100500.66;;;19.77;33.58
13011;BME280;6786;57.632;11.962;2022-12-10T03:11:15;100498.94;;;19.76;33.54
13011;BME280;6786;57.632;11.962;2022-12-10T03:13:49;100495.44;;;19.76;33.41
13011;BME280;6786;57.632;11.962;2022-12-10T03:16:23;100492.19;;;19.72;33.49
13011;BME280;6786;57.632;11.962;2022-12-10T03:18:57;100498.94;;;19.76;33.49
13011;BME280;6786;57.632;11.962;2022-12-10T03:21:28;100504.31;;;19.76;33.56
13011;BME280;6786;57.632;11.962;2022-12-10T03:23:58;100508.00;;;19.75;33.50
13011;BME280;6786;57.632;11.962;2022-12-10T03:26:26;100511.69;;;19.74;33.48
13011;BME280;6786;57.632;11.962;2022-12-10T03:28:57;100513.38;;;19.75;33.54
13011;BME280;6786;57.632;11.962;2022-12-10T03:31:31;100508.00;;;19.75;33.49
13011;BME280;6786;57.632;11.962;2022-12-10T03:34:02;100502.63;;;19.75;33.58
13011;BME280;6786;57.632;11.962;2022-12-10T03:36:30;100504.31;;;19.76;33.39
13011;BME280;6786;57.632;11.962;2022-12-10T03:39:00;100499.25;;;19.73;33.44
13011;BME280;6786;57.632;11.962;2022-12-10T03:41:28;100496.28;;;19.76;33.47
13011;BME280;6786;57.632;11.962;2022-12-10T03:43:58;100509.69;;;19.76;33.55
13011;BME280;6786;57.632;11.962;2022-12-10T03:46:27;100502.63;;;19.75;33.50
13011;BME280;6786;57.632;11.962;2022-12-10T03:48:58;100498.94;;;19.76;33.40
13011;BME280;6786;57.632;11.962;2022-12-10T03:51:27;100497.28;;;19.75;33.57
13011;BME280;6786;57.632;11.962;2022-12-10T03:53:55;100502.63;;;19.75;33.47
13011;BME280;6786;57.632;11.962;2022-12-10T03:56:23;100495.59;;;19.74;33.44
13011;BME280;6786;57.632;11.962;2022-12-10T03:58:52;100496.41;;;19.75;33.50
13011;BME280;6786;57.632;11.962;2022-12-10T04:01:20;100497.28;;;19.75;33.31
13011;BME280;6786;57.632;11.962;2022-12-10T04:03:48;100499.94;;;19.75;33.49
13011;BME280;6786;57.632;11.962;2022-12-10T04:06:18;100504.31;;;19.76;33.35
13011;BME280;6786;57.632;11.962;2022-12-10T04:08:47;100496.28;;;19.76;33.35
13011;BME280;6786;57.632;11.962;2022-12-10T04:11:24;100508.00;;;19.75;33.40
13011;BME280;6786;57.632;11.962;2022-12-10T04:13:52;100505.31;;;19.75;33.30
13011;BME280;6786;57.632;11.962;2022-12-10T04:16:38;100487.69;;;19.63;33.40
13011;BME280;6786;57.632;11.962;2022-12-10T04:19:08;100500.66;;;19.77;33.30
13011;BME280;6786;57.632;11.962;2022-12-10T04:21:39;100508.84;;;19.76;33.35
13011;BME280;6786;57.632;11.962;2022-12-10T04:24:27;100509.69;;;19.76;33.28
13011;BME280;6786;57.632;11.962;2022-12-10T04:27:16;100508.00;;;19.75;33.34
13011;BME280;6786;57.632;11.962;2022-12-10T04:29:45;100510.69;;;19.75;33.29
13011;BME280;6786;57.632;11.962;2022-12-10T04:32:13;100506.31;;;19.74;33.44
13011;BME280;6786;57.632;11.962;2022-12-10T04:34:41;100505.31;;;19.75;33.28
13011;BME280;6786;57.632;11.962;2022-12-10T04:37:11;100504.59;;;19.73;33.47
13011;BME280;6786;57.632;11.962;2022-12-10T04:39:40;100509.69;;;19.76;33.32
13011;BME280;6786;57.632;11.962;2022-12-10T04:42:08;100509.69;;;19.76;33.30
13011;BME280;6786;57.632;11.962;2022-12-10T04:44:37;100511.69;;;19.74;33.24
13011;BME280;6786;57.632;11.962;2022-12-10T04:47:06;100515.03;;;19.76;33.29
13011;BME280;6786;57.632;11.962;2022-12-10T04:49:35;100515.91;;;19.77;33.43
13011;BME280;6786;57.632;11.962;2022-12-10T04:52:04;100511.38;;;19.77;33.38
13011;BME280;6786;57.632;11.962;2022-12-10T04:54:34;100508.00;;;19.75;33.30
13011;BME280;6786;57.632;11.962;2022-12-10T04:57:05;100515.03;;;19.76;33.19
13011;BME280;6786;57.632;11.962;2022-12-10T04:59:33;100468.69;;;19.47;33.24
13011;BME280;6786;57.632;11.962;2022-12-10T05:02:02;100528.44;;;19.76;33.34
13011;BME280;6786;57.632;11.962;2022-12-10T05:04:30;100509.69;;;19.76;33.31
13011;BME280;6786;57.632;11.962;2022-12-10T05:06:58;100518.72;;;19.75;33.32
13011;BME280;6786;57.632;11.962;2022-12-10T05:09:26;100518.72;;;19.75;33.25
13011;BME280;6786;57.632;11.962;2022-12-10T05:11:56;100524.09;;;19.75;33.33
13011;BME280;6786;57.632;11.962;2022-12-10T05:14:24;100528.59;;;19.75;33.24
13011;BME280;6786;57.632;11.962;2022-12-10T05:16:52;100511.97;;;19.71;33.16
13011;BME280;6786;57.632;11.962;2022-12-10T05:19:20;100514.22;;;19.76;33.17
13011;BME280;6786;57.632;11.962;2022-12-10T05:21:50;100515.91;;;19.77;33.33
13011;BME280;6786;57.632;11.962;2022-12-10T05:24:35;100513.38;;;19.75;33.29
13011;BME280;6786;57.632;11.962;2022-12-10T05:27:05;100521.41;;;19.75;33.13
13011;BME280;6786;57.632;11.962;2022-12-10T05:29:33;100513.66;;;19.72;33.31
13011;BME280;6786;57.632;11.962;2022-12-10T05:32:02;100517.88;;;19.75;33.18
13011;BME280;6786;57.632;11.962;2022-12-10T05:34:31;100522.41;;;19.74;33.19
13011;BME280;6786;57.632;11.962;2022-12-10T05:36:59;100513.66;;;19.72;33.17
13011;BME280;6786;57.632;11.962;2022-12-10T05:39:27;100518.72;;;19.75;33.25
13011;BME280;6786;57.632;11.962;2022-12-10T05:41:55;100518.72;;;19.75;33.04
13011;BME280;6786;57.632;11.962;2022-12-10T05:44:25;100524.09;;;19.75;33.18
13011;BME280;6786;57.632;11.962;2022-12-10T05:46:52;100529.44;;;19.75;33.13
13011;BME280;6786;57.632;11.962;2022-12-10T05:49:20;100529.44;;;19.75;33.08
13011;BME280;6786;57.632;11.962;2022-12-10T05:51:48;100527.63;;;19.76;33.14
13011;BME280;6786;57.632;11.962;2022-12-10T05:54:16;100530.31;;;19.76;33.18
13011;BME280;6786;57.632;11.962;2022-12-10T05:56:44;100524.38;;;19.72;33.22
13011;BME280;6786;57.632;11.962;2022-12-10T05:59:12;100529.44;;;19.75;33.16
13011;BME280;6786;57.632;11.962;2022-12-10T06:01:44;100528.59;;;19.75;33.13
13011;BME280;6786;57.632;11.962;2022-12-10T06:04:12;100533.13;;;19.74;33.14
13011;BME280;6786;57.632;11.962;2022-12-10T06:06:41;100533.94;;;19.75;33.13
13011;BME280;6786;57.632;11.962;2022-12-10T06:09:12;100529.59;;;19.74;33.18
13011;BME280;6786;57.632;11.962;2022-12-10T06:11:40;100537.63;;;19.74;33.14
13011;BME280;6786;57.632;11.962;2022-12-10T06:14:09;100536.78;;;19.73;33.11
13011;BME280;6786;57.632;11.962;2022-12-10T06:16:39;100543.84;;;19.74;33.19
13011;BME280;6786;57.632;11.962;2022-12-10T06:19:09;100548.22;;;19.75;33.13
13011;BME280;6786;57.632;11.962;2022-12-10T06:21:37;100538.50;;;19.74;33.09
13011;BME280;6786;57.632;11.962;2022-12-10T06:24:06;100540.19;;;19.75;33.02
13011;BME280;6786;57.632;11.962;2022-12-10T06:26:34;100445.72;;;19.16;32.97
13011;BME280;6786;57.632;11.962;2022-12-10T06:29:03;100552.59;;;19.76;33.06
13011;BME280;6786;57.632;11.962;2022-12-10T06:31:31;100551.75;;;19.76;33.21
13011;BME280;6786;57.632;11.962;2022-12-10T06:34:00;100549.22;;;19.74;33.09
13011;BME280;6786;57.632;11.962;2022-12-10T06:36:29;100550.91;;;19.75;33.15
13011;BME280;6786;57.632;11.962;2022-12-10T06:38:57;100547.50;;;19.73;33.10
13011;BME280;6786;57.632;11.962;2022-12-10T06:41:25;100554.59;;;19.74;33.01
13011;BME280;6786;57.632;11.962;2022-12-10T06:43:54;100556.25;;;19.75;33.04
13011;BME280;6786;57.632;11.962;2022-12-10T06:46:26;100554.44;;;19.76;32.98
13011;BME280;6786;57.632;11.962;2022-12-10T06:48:55;100553.59;;;19.75;33.01
13011;BME280;6786;57.632;11.962;2022-12-10T06:51:23;100562.63;;;19.74;32.96
13011;BME280;6786;57.632;11.962;2022-12-10T06:53:52;100559.09;;;19.74;32.93
13011;BME280;6786;57.632;11.962;2022-12-10T06:56:20;100561.63;;;19.75;32.97
13011;BME280;6786;57.632;11.962;2022-12-10T06:58:49;100556.25;;;19.75;33.04
13011;BME280;6786;57.632;11.962;2022-12-10T07:01:19;100562.47;;;19.76;32.93
13011;BME280;6786;57.632;11.962;2022-12-10T07:03:49;100568.66;;;19.76;32.99
13011;BME280;6786;57.632;11.962;2022-12-10T07:06:18;100569.53;;;19.77;32.96
13011;BME280;6786;57.632;11.962;2022-12-10T07:08:46;100574.03;;;19.76;33.03
13011;BME280;6786;57.632;11.962;2022-12-10T07:11:17;100570.66;;;19.74;33.09
13011;BME280;6786;57.632;11.962;2022-12-10T07:13:46;100577.84;;;19.74;33.09
13011;BME280;6786;57.632;11.962;2022-12-10T07:16:15;100573.34;;;19.74;33.03
13011;BME280;6786;57.632;11.962;2022-12-10T07:18:44;100571.63;;;19.73;32.89
13011;BME280;6786;57.632;11.962;2022-12-10T07:21:20;100570.66;;;19.74;32.86
13011;BME280;6786;57.632;11.962;2022-12-10T07:23:48;100571.63;;;19.73;32.95
13011;BME280;6786;57.632;11.962;2022-12-10T07:26:18;100569.81;;;19.74;32.93
13011;BME280;6786;57.632;11.962;2022-12-10T07:28:46;100562.63;;;19.74;33.00
13011;BME280;6786;57.632;11.962;2022-12-10T07:31:20;100572.34;;;19.75;32.88
13011;BME280;6786;57.632;11.962;2022-12-10T07:33:50;100570.66;;;19.74;32.93
13011;BME280;6786;57.632;11.962;2022-12-10T07:36:20;100567.00;;;19.75;33.03
13011;BME280;6786;57.632;11.962;2022-12-10T07:38:49;100560.22;;;19.71;32.80
13011;BME280;6786;57.632;11.962;2022-12-10T07:41:19;100571.25;;;19.68;32.85
13011;BME280;6786;57.632;11.962;2022-12-10T07:43:48;100576.03;;;19.74;32.96
13011;BME280;6786;57.632;11.962;2022-12-10T07:46:18;100583.09;;;19.75;32.98
13011;BME280;6786;57.632;11.962;2022-12-10T07:48:47;100594.81;;;19.74;33.05
13011;BME280;6786;57.632;11.962;2022-12-10T07:51:17;100581.41;;;19.74;33.02
13011;BME280;6786;57.632;11.962;2022-12-10T07:53:45;100573.22;;;19.66;33.03
13011;BME280;6786;57.632;11.962;2022-12-10T07:56:14;100588.72;;;19.72;32.85
13011;BME280;6786;57.632;11.962;2022-12-10T07:58:44;100592.13;;;19.74;32.79
13011;BME280;6786;57.632;11.962;2022-12-10T08:01:18;100588.72;;;19.72;32.85
13011;BME280;6786;57.632;11.962;2022-12-10T08:03:46;100596.63;;;19.74;32.96
13011;BME280;6786;57.632;11.962;2022-12-10T08:06:16;100590.69;;;19.70;32.84
13011;BME280;6786;57.632;11.962;2022-12-10T08:08:45;100593.94;;;19.74;32.90
13011;BME280;6786;57.632;11.962;2022-12-10T08:11:14;100590.41;;;19.73;32.94
13011;BME280;6786;57.632;11.962;2022-12-10T08:13:44;100590.41;;;19.73;32.82
13011;BME280;6786;57.632;11.962;2022-12-10T08:16:20;100588.72;;;19.72;32.89
13011;BME280;6786;57.632;11.962;2022-12-10T08:18:52;100594.09;;;19.72;33.02
13011;BME280;6786;57.632;11.962;2022-12-10T08:21:21;100600.31;;;19.73;32.93
13011;BME280;6786;57.632;11.962;2022-12-10T08:23:49;100599.44;;;19.72;32.87
13011;BME280;6786;57.632;11.962;2022-12-10T08:26:19;100608.50;;;19.71;32.94
13011;BME280;6786;57.632;11.962;2022-12-10T08:28:49;100610.19;;;19.72;32.83
13011;BME280;6786;57.632;11.962;2022-12-10T08:31:18;100615.53;;;19.72;32.90
13011;BME280;6786;57.632;11.962;2022-12-10T08:33:47;100609.31;;;19.72;32.87
13011;BME280;6786;57.632;11.962;2022-12-10T08:36:16;100614.69;;;19.72;32.98
13011;BME280;6786;57.632;11.962;2022-12-10T08:38:45;100613.84;;;19.71;32.84
13011;BME280;6786;57.632;11.962;2022-12-10T08:41:15;100614.81;;;19.70;32.81
13011;BME280;6786;57.632;11.962;2022-12-10T08:43:44;100612.16;;;19.70;32.83
13011;BME280;6786;57.632;11.962;2022-12-10T08:46:14;100615.81;;;19.69;32.74
13011;BME280;6786;57.632;11.962;2022-12-10T08:48:42;100619.22;;;19.71;32.73
13011;BME280;6786;57.632;11.962;2022-12-10T08:51:13;100607.34;;;19.64;32.62
13011;BME280;6786;57.632;11.962;2022-12-10T08:53:41;100613.84;;;19.71;32.64
13011;BME280;6786;57.632;11.962;2022-12-10T08:56:11;100613.84;;;19.71;32.78
13011;BME280;6786;57.632;11.962;2022-12-10T08:58:39;100626.28;;;19.72;32.67
13011;BME280;6786;57.632;11.962;2022-12-10T09:01:08;100626.28;;;19.72;32.75
13011;BME280;6786;57.632;11.962;2022-12-10T09:03:38;100631.63;;;19.72;32.70
13011;BME280;6786;57.632;11.962;2022-12-10T09:06:08;100628.94;;;19.72;32.73
13011;BME280;6786;57.632;11.962;2022-12-10T09:08:36;100631.63;;;19.72;32.70
13011;BME280;6786;57.632;11.962;2022-12-10T09:11:06;100631.63;;;19.72;32.67
13011;BME280;6786;57.632;11.962;2022-12-10T09:13:35;100636.13;;;19.72;32.67
13011;BME280;6786;57.632;11.962;2022-12-10T09:16:03;100643.22;;;19.73;32.52
13011;BME280;6786;57.632;11.962;2022-12-10T09:18:31;100641.34;;;19.73;32.51
13011;BME280;6786;57.632;11.962;2022-12-10T09:21:04;100642.34;;;19.72;32.63
13011;BME280;6786;57.632;11.962;2022-12-10T09:23:33;100649.41;;;19.73;32.64
13011;BME280;6786;57.632;11.962;2022-12-10T09:26:01;100645.03;;;19.72;32.71
13011;BME280;6786;57.632;11.962;2022-12-10T09:28:32;100653.09;;;19.72;32.71
13011;BME280;6786;57.632;11.962;2022-12-10T09:31:01;100654.78;;;19.73;32.62
13011;BME280;6786;57.632;11.962;2022-12-10T09:33:38;100651.41;;;19.71;32.65
13011;BME280;6786;57.632;11.962;2022-12-10T09:36:09;100655.03;;;19.70;32.71
13011;BME280;6786;57.632;11.962;2022-12-10T09:38:39;100651.13;;;19.74;32.68
13011;BME280;6786;57.632;11.962;2022-12-10T09:41:19;100654.78;;;19.73;32.54
13011;BME280;6786;57.632;11.962;2022-12-10T09:43:59;100660.13;;;19.73;32.55
13011;BME280;6786;57.632;11.962;2022-12-10T09:46:39;100652.09;;;19.73;32.48
13011;BME280;6786;57.632;11.962;2022-12-10T09:49:12;100655.63;;;19.74;32.78
13011;BME280;6786;57.632;11.962;2022-12-10T09:51:47;100649.00;;;19.68;32.67
13011;BME280;6786;57.632;11.962;2022-12-10T09:54:19;100656.47;;;19.74;32.51
13011;BME280;6786;57.632;11.962;2022-12-10T09:56:51;100624.59;;;19.52;32.72
13011;BME280;6786;57.632;11.962;2022-12-10T09:59:23;100626.72;;;19.58;32.59
13011;BME280;6786;57.632;11.962;2022-12-10T10:02:02;100646.72;;;19.73;32.49
13011;BME280;6786;57.632;11.962;2022-12-10T10:04:30;100654.78;;;19.73;32.57
13011;BME280;6786;57.632;11.962;2022-12-10T10:07:00;100652.22;;;19.72;32.56
13011;BME280;6786;57.632;11.962;2022-12-10T10:09:28;100661.13;;;19.72;32.67
13011;BME280;6786;57.632;11.962;2022-12-10T10:11:56;100663.81;;;19.72;32.53
13011;BME280;6786;57.632;11.962;2022-12-10T10:14:30;100664.81;;;19.71;32.59
13011;BME280;6786;57.632;11.962;2022-12-10T10:17:01;100669.16;;;19.72;32.75
13011;BME280;6786;57.632;11.962;2022-12-10T10:19:31;100659.59;;;19.70;32.69
13011;BME280;6786;57.632;11.962;2022-12-10T10:22:04;100657.88;;;19.69;32.67
13011;BME280;6786;57.632;11.962;2022-12-10T10:24:34;100658.44;;;19.72;32.59
13011;BME280;6786;57.632;11.962;2022-12-10T10:27:12;100656.63;;;19.73;32.43
13011;BME280;6786;57.632;11.962;2022-12-10T10:29:41;100652.50;;;19.69;32.63
13011;BME280;6786;57.632;11.962;2022-12-10T10:32:13;100651.41;;;19.71;32.52
13011;BME280;6786;57.632;11.962;2022-12-10T10:34:42;100638.13;;;19.60;32.73
13011;BME280;6786;57.632;11.962;2022-12-10T10:37:19;100651.69;;;19.68;32.49
13011;BME280;6786;57.632;11.962;2022-12-10T10:39:49;100668.59;;;19.69;32.65
13011;BME280;6786;57.632;11.962;2022-12-10T10:42:31;100664.38;;;19.66;32.36
13011;BME280;6786;57.632;11.962;2022-12-10T10:45:02;100663.50;;;19.66;32.57
13011;BME280;6786;57.632;11.962;2022-12-10T10:47:32;100659.28;;;19.63;32.54
13011;BME280;6786;57.632;11.962;2022-12-10T10:50:01;100657.59;;;19.62;32.56
13011;BME280;6786;57.632;11.962;2022-12-10T10:52:37;100661.97;;;19.63;32.41
13011;BME280;6786;57.632;11.962;2022-12-10T10:55:32;100670.00;;;19.63;32.18
13011;BME280;6786;57.632;11.962;2022-12-10T10:58:02;100670.00;;;19.63;32.59
13011;BME280;6786;57.632;11.962;2022-12-10T11:00:30;100671.97;;;19.61;32.54
13011;BME280;6786;57.632;11.962;2022-12-10T11:02:58;100662.97;;;19.62;32.52
13011;BME280;6786;57.632;11.962;2022-12-10T11:05:29;100673.69;;;19.62;32.49
13011;BME280;6786;57.632;11.962;2022-12-10T11:08:05;100654.06;;;19.52;32.39
13011;BME280;6786;57.632;11.962;2022-12-10T11:10:34;100670.00;;;19.63;32.59
13011;BME280;6786;57.632;11.962;2022-12-10T11:13:06;100670.00;;;19.63;32.46
13011;BME280;6786;57.632;11.962;2022-12-10T11:15:36;100664.94;;;19.60;32.40
13011;BME280;6786;57.632;11.962;2022-12-10T11:18:26;100664.94;;;19.60;32.13
13011;BME280;6786;57.632;11.962;2022-12-10T11:21:04;100671.00;;;19.62;32.25
13011;BME280;6786;57.632;11.962;2022-12-10T11:23:37;100675.38;;;19.63;32.35
13011;BME280;6786;57.632;11.962;2022-12-10T11:26:15;100670.28;;;19.60;32.41
13011;BME280;6786;57.632;11.962;2022-12-10T11:28:57;100673.41;;;19.65;32.27
13011;BME280;6786;57.632;11.962;2022-12-10T11:31:42;100672.41;;;19.66;32.34
13011;BME280;6786;57.632;11.962;2022-12-10T11:34:18;100666.34;;;19.64;32.46
13011;BME280;6786;57.632;11.962;2022-12-10T11:36:55;100667.06;;;19.66;32.34
13011;BME280;6786;57.632;11.962;2022-12-10T11:39:41;100669.72;;;19.66;32.29
13011;BME280;6786;57.632;11.962;2022-12-10T11:42:21;100666.06;;;19.67;32.30
13011;BME280;6786;57.632;11.962;2022-12-10T11:44:57;100668.06;;;19.65;32.38
13011;BME280;6786;57.632;11.962;2022-12-10T11:47:38;100660.69;;;19.67;32.12
13011;BME280;6786;57.632;11.962;2022-12-10T11:50:17;100658.16;;;19.66;32.38
13011;BME280;6786;57.632;11.962;2022-12-10T11:53:02;100662.69;;;19.65;32.45
13011;BME280;6786;57.632;11.962;2022-12-10T11:55:46;100660.69;;;19.67;32.37
13011;BME280;6786;57.632;11.962;2022-12-10T11:58:31;100653.66;;;19.66;32.42
13011;BME280;6786;57.632;11.962;2022-12-10T12:01:13;100659.00;;;19.66;32.39
13011;BME280;6786;57.632;11.962;2022-12-10T12:03:58;100658.88;;;19.68;32.40
13011;BME280;6786;57.632;11.962;2022-12-10T12:06:50;100660.69;;;19.67;32.24
13011;BME280;6786;57.632;11.962;2022-12-10T12:09:29;100657.03;;;19.68;32.44
13011;BME280;6786;57.632;11.962;2022-12-10T12:12:11;100650.69;;;19.69;32.43
13011;BME280;6786;57.632;11.962;2022-12-10T12:14:46;100646.31;;;19.68;32.49
13011;BME280;6786;57.632;11.962;2022-12-10T12:17:20;100641.63;;;19.70;32.50
13011;BME280;6786;57.632;11.962;2022-12-10T12:19:52;100653.09;;;19.72;32.52
13011;BME280;6786;57.632;11.962;2022-12-10T12:22:24;100658.44;;;19.72;32.51
13011;BME280;6786;57.632;11.962;2022-12-10T12:24:56;100647.72;;;19.72;32.52
13011;BME280;6786;57.632;11.962;2022-12-10T12:27:31;100635.88;;;19.65;32.50
13011;BME280;6786;57.632;11.962;2022-12-10T12:30:05;100640.69;;;19.71;32.49
13011;BME280;6786;57.632;11.962;2022-12-10T12:32:42;100643.63;;;19.68;32.63
13011;BME280;6786;57.632;11.962;2022-12-10T12:35:16;100649.69;;;19.70;32.52
13011;BME280;6786;57.632;11.962;2022-12-10T12:37:48;100649.69;;;19.70;32.49
13011;BME280;6786;57.632;11.962;2022-12-10T12:40:25;100655.03;;;19.70;32.52
13011;BME280;6786;57.632;11.962;2022-12-10T12:42:59;100653.09;;;19.72;32.54
13011;BME280;6786;57.632;11.962;2022-12-10T12:45:33;100647.56;;;19.64;32.39
13011;BME280;6786;57.632;11.962;2022-12-10T12:48:13;100649.41;;;19.73;32.58
13011;BME280;6786;57.632;11.962;2022-12-10T12:50:44;100664.66;;;19.73;32.55
13011;BME280;6786;57.632;11.962;2022-12-10T12:53:14;100656.75;;;19.71;32.59
13011;BME280;6786;57.632;11.962;2022-12-10T12:55:51;100653.09;;;19.72;32.47
13011;BME280;6786;57.632;11.962;2022-12-10T12:58:31;100652.22;;;19.72;32.49
13011;BME280;6786;57.632;11.962;2022-12-10T13:01:10;100657.72;;;19.70;32.60
13011;BME280;6786;57.632;11.962;2022-12-10T13:03:43;100652.38;;;19.70;32.50
13011;BME280;6786;57.632;11.962;2022-12-10T13:06:20;100658.44;;;19.72;32.45
13011;BME280;6786;57.632;11.962;2022-12-10T13:08:53;100653.38;;;19.69;32.49
13011;BME280;6786;57.632;11.962;2022-12-10T13:11:33;100651.41;;;19.71;32.40
13011;BME280;6786;57.632;11.962;2022-12-10T13:14:12;100656.75;;;19.71;32.32